Time;durP1;ratioP1;P1;durP2;ratioP2;P2;SDS_P1;SDS_P2;PMS_P1;PMS_P2;Temp;Humidity;BMP_temperature;BMP_pressure;BME280_temperature;BME280_humidity;BME280_pressure;Samples;Min_cycle;Max_cycle;Signal;HPM_P1;HPM_P2
2024/01/26 00:02:04;;;;;;;0.13;0.13;;;;;;;1.19;86.25;100462.47;4261309;28;20633;-67
2024/01/26 00:04:31;;;;;;;0.50;0.30;;;;;;;1.10;86.75;100443.38;4269665;28;20232;-66
2024/01/26 00:06:58;;;;;;;5.07;1.33;;;;;;;1.05;86.54;100457.91;4254855;28;21310;-67
2024/01/26 00:09:25;;;;;;;0.10;0.10;;;;;;;1.07;86.24;100458.69;4258600;28;20540;-68
2024/01/26 00:11:52;;;;;;;0.10;0.10;;;;;;;1.13;86.12;100463.66;4276589;28;20225;-66
2024/01/26 00:14:18;;;;;;;0.10;0.10;;;;;;;1.19;85.45;100468.66;4250159;28;21059;-68
2024/01/26 00:16:45;;;;;;;1.67;0.73;;;;;;;1.14;85.46;100475.19;4261317;28;20869;-67
2024/01/26 00:19:12;;;;;;;22.53;7.03;;;;;;;1.08;85.59;100473.75;4260763;28;20270;-65
2024/01/26 00:21:39;;;;;;;3.13;0.90;;;;;;;1.06;86.03;100473.81;4262051;28;20393;-66
2024/01/26 00:24:06;;;;;;;1.20;1.20;;;;;;;1.05;86.11;100479.22;4254130;28;20648;-67
2024/01/26 00:26:33;;;;;;;15.63;3.13;;;;;;;1.12;86.28;100477.94;4257977;28;26723;-70
2024/01/26 00:28:59;;;;;;;1.37;1.27;;;;;;;1.08;86.45;100487.06;4260127;28;20636;-64
2024/01/26 00:31:26;;;;;;;0.33;0.33;;;;;;;1.05;86.66;100495.22;4264492;28;20427;-67
2024/01/26 00:33:53;;;;;;;0.90;0.60;;;;;;;1.06;86.22;100489.81;4245199;28;20227;-64
2024/01/26 00:36:20;;;;;;;0.20;0.20;;;;;;;1.13;86.20;100500.16;4260381;28;20893;-69
2024/01/26 00:38:46;;;;;;;0.30;0.30;;;;;;;0.99;87.16;100488.41;4258092;28;20255;-67
2024/01/26 00:41:13;;;;;;;0.50;0.20;;;;;;;1.02;87.07;100496.25;4266203;28;20426;-68
2024/01/26 00:43:39;;;;;;;1.13;0.63;;;;;;;0.92;87.45;100509.25;4259068;28;20228;-65
2024/01/26 00:46:06;;;;;;;0.10;0.10;;;;;;;0.93;87.48;100500.31;4232322;28;20306;-66
2024/01/26 00:48:32;;;;;;;0.10;0.10;;;;;;;1.09;86.95;100496.78;4255401;28;20233;-66
2024/01/26 00:50:59;;;;;;;0.43;0.43;;;;;;;1.04;87.24;100499.72;4256415;28;22072;-65
2024/01/26 00:53:26;;;;;;;0.50;0.50;;;;;;;1.05;87.24;100508.56;4253770;28;21355;-66
2024/01/26 00:55:52;;;;;;;0.67;0.53;;;;;;;1.04;86.11;100514.84;4257506;28;20237;-65
2024/01/26 00:58:19;;;;;;;0.77;0.70;;;;;;;0.94;86.70;100525.13;4270633;28;20233;-68
2024/01/26 01:00:45;;;;;;;0.10;0.10;;;;;;;0.96;86.86;100523.25;4256077;28;20285;-65
2024/01/26 01:03:12;;;;;;;0.10;0.10;;;;;;;0.93;86.04;100512.75;4258262;28;20225;-66
2024/01/26 01:05:39;;;;;;;0.30;0.30;;;;;;;0.94;86.01;100519.81;4257106;28;20287;-68
2024/01/26 01:08:06;;;;;;;1.70;1.07;;;;;;;0.87;86.34;100513.94;4257761;28;20547;-64
2024/01/26 01:10:32;;;;;;;8.70;0.57;;;;;;;0.88;86.83;100515.66;4274199;28;24117;-65
2024/01/26 01:12:59;;;;;;;0.10;0.10;;;;;;;0.87;86.98;100513.09;4255379;28;23653;-67
2024/01/26 01:15:26;;;;;;;0.10;0.10;;;;;;;0.95;86.65;100530.38;4254445;28;21615;-65
2024/01/26 01:17:52;;;;;;;0.50;0.50;;;;;;;0.97;86.68;100534.78;4261397;28;21523;-66
2024/01/26 01:20:20;;;;;;;0.50;0.50;;;;;;;0.98;86.52;100525.84;4270177;28;20221;-68
2024/01/26 01:22:47;;;;;;;0.10;0.10;;;;;;;0.91;86.56;100526.16;4257257;28;20230;-67
2024/01/26 01:25:14;;;;;;;0.10;0.10;;;;;;;0.94;86.22;100541.13;4256801;28;20366;-65
2024/01/26 01:27:41;;;;;;;0.10;0.10;;;;;;;0.94;86.53;100541.97;4261970;28;20242;-67
2024/01/26 01:30:09;;;;;;;0.10;0.10;;;;;;;1.03;85.90;100555.75;4252073;28;22427;-65
2024/01/26 01:32:36;;;;;;;0.10;0.10;;;;;;;1.05;85.45;100556.53;4260167;28;20279;-65
2024/01/26 01:35:03;;;;;;;0.20;0.20;;;;;;;0.85;85.60;100553.16;4261552;28;20238;-68
2024/01/26 01:37:30;;;;;;;0.13;0.13;;;;;;;0.87;85.82;100556.59;4262348;28;20251;-67
2024/01/26 01:39:56;;;;;;;0.30;0.30;;;;;;;0.89;85.79;100559.19;4262988;28;20339;-65
2024/01/26 01:42:23;;;;;;;0.37;0.30;;;;;;;0.78;85.74;100552.63;4246507;28;20228;-68
2024/01/26 01:44:49;;;;;;;0.10;0.10;;;;;;;0.87;85.70;100555.72;4255513;28;20225;-68
2024/01/26 01:47:17;;;;;;;4.23;0.47;;;;;;;0.80;85.77;100552.53;4263138;28;21186;-66
2024/01/26 01:49:43;;;;;;;0.37;0.37;;;;;;;0.87;85.68;100556.59;4264910;28;20233;-67
2024/01/26 01:52:15;;;;;;;0.20;0.20;;;;;;;0.65;86.91;100564.00;4263015;28;20412;-66
2024/01/26 01:54:41;;;;;;;0.10;0.10;;;;;;;0.73;87.26;100568.00;4260337;28;20643;-65
2024/01/26 01:57:12;;;;;;;0.13;0.13;;;;;;;0.80;86.70;100568.50;4261992;28;20760;-68
2024/01/26 01:59:41;;;;;;;0.10;0.10;;;;;;;0.75;87.03;100568.78;4256143;28;20255;-68
2024/01/26 02:02:08;;;;;;;0.10;0.10;;;;;;;0.74;87.45;100567.06;4260936;28;20897;-68
2024/01/26 02:04:34;;;;;;;0.10;0.10;;;;;;;0.83;87.40;100571.03;4260825;28;22132;-67
2024/01/26 02:07:03;;;;;;;0.20;0.20;;;;;;;0.92;86.80;100572.34;4259812;28;20236;-66
2024/01/26 02:09:30;;;;;;;0.10;0.10;;;;;;;0.93;86.78;100576.72;4252398;28;22815;-66
2024/01/26 02:11:57;;;;;;;0.00;0.00;;;;;;;1.01;86.65;100579.00;4261215;28;25461;-66
2024/01/26 02:14:25;;;;;;;0.10;0.10;;;;;;;0.94;87.05;100573.97;4263339;28;20266;-66
2024/01/26 02:16:59;;;;;;;0.10;0.10;;;;;;;0.98;87.19;100577.34;4261315;28;20242;-66
2024/01/26 02:19:27;;;;;;;0.10;0.10;;;;;;;0.91;87.33;100576.81;4243163;28;20701;-67
2024/01/26 02:21:54;;;;;;;0.20;0.20;;;;;;;0.89;86.96;100569.84;4267314;28;20431;-66
2024/01/26 02:24:21;;;;;;;0.30;0.27;;;;;;;0.86;87.13;100576.22;4267630;28;22767;-65
2024/01/26 02:26:47;;;;;;;0.20;0.20;;;;;;;0.84;87.19;100569.22;4261518;28;20299;-65
2024/01/26 02:29:14;;;;;;;0.10;0.10;;;;;;;0.74;87.57;100576.84;4262626;28;20229;-66
2024/01/26 02:31:40;;;;;;;0.30;0.30;;;;;;;0.76;87.64;100575.81;4265235;28;20232;-65
2024/01/26 02:34:10;;;;;;;0.17;0.13;;;;;;;0.83;87.55;100581.69;4251762;28;20237;-66
2024/01/26 02:36:38;;;;;;;0.10;0.10;;;;;;;0.78;87.80;100581.09;4264639;28;21780;-66
2024/01/26 02:39:05;;;;;;;0.10;0.10;;;;;;;0.85;87.62;100579.81;4261045;28;20236;-68
2024/01/26 02:41:34;;;;;;;0.10;0.10;;;;;;;0.98;86.89;100585.34;4268141;28;20261;-67
2024/01/26 02:44:01;;;;;;;0.77;0.40;;;;;;;0.88;86.89;100586.78;4265685;28;21592;-64
2024/01/26 02:46:28;;;;;;;0.30;0.30;;;;;;;0.98;86.35;100589.81;4260527;28;20301;-67
2024/01/26 02:48:55;;;;;;;0.37;0.37;;;;;;;1.05;86.25;100593.88;4260119;28;21014;-66
2024/01/26 02:51:22;;;;;;;0.10;0.10;;;;;;;0.95;86.55;100588.16;4268055;28;21496;-66
2024/01/26 02:53:49;;;;;;;0.10;0.10;;;;;;;0.87;87.43;100598.38;4261921;28;20680;-67
2024/01/26 02:56:16;;;;;;;0.10;0.10;;;;;;;0.89;87.50;100593.84;4260932;28;20238;-65
2024/01/26 02:58:42;;;;;;;0.10;0.10;;;;;;;0.98;87.18;100604.00;4264112;28;20337;-66
2024/01/26 03:01:09;;;;;;;3.70;1.90;;;;;;;0.86;87.25;100605.53;4262718;28;21159;-67
2024/01/26 03:03:36;;;;;;;2.13;2.00;;;;;;;0.92;86.24;100614.97;4264568;28;25658;-66
2024/01/26 03:06:03;;;;;;;0.97;0.80;;;;;;;0.76;87.10;100617.59;4258201;28;20934;-68
2024/01/26 03:08:31;;;;;;;0.10;0.10;;;;;;;0.75;87.67;100613.22;4262999;28;20246;-65
2024/01/26 03:10:58;;;;;;;0.57;0.57;;;;;;;1.01;86.92;100614.50;4263043;28;20229;-65
2024/01/26 03:13:24;;;;;;;0.20;0.20;;;;;;;0.94;86.49;100613.94;4275489;28;20667;-66
2024/01/26 03:15:51;;;;;;;0.30;0.30;;;;;;;0.86;86.82;100610.84;4260200;28;20572;-65
2024/01/26 03:18:18;;;;;;;0.10;0.10;;;;;;;0.80;87.58;100611.16;4260206;28;20239;-67
2024/01/26 03:20:45;;;;;;;0.20;0.20;;;;;;;0.88;87.25;100619.63;4261301;28;21675;-65
2024/01/26 03:23:13;;;;;;;0.10;0.10;;;;;;;0.76;87.45;100621.09;4259653;28;20413;-65
2024/01/26 03:25:39;;;;;;;0.40;0.40;;;;;;;0.90;86.98;100624.88;4259982;28;20229;-65
2024/01/26 03:28:07;;;;;;;1.67;1.50;;;;;;;0.72;87.39;100619.56;4260273;28;23457;-66
2024/01/26 03:30:34;;;;;;;0.10;0.10;;;;;;;0.77;88.28;100633.50;4259929;28;20251;-64
2024/01/26 03:33:01;;;;;;;0.10;0.10;;;;;;;0.69;88.54;100624.19;4261620;28;20269;-64
2024/01/26 03:35:27;;;;;;;0.10;0.10;;;;;;;0.79;88.17;100630.78;4260347;28;20483;-65
2024/01/26 03:37:55;;;;;;;0.20;0.20;;;;;;;0.84;87.42;100630.50;4258824;28;20227;-65
2024/01/26 03:40:24;;;;;;;0.23;0.23;;;;;;;0.79;87.69;100622.78;4259455;28;20712;-65
2024/01/26 03:42:51;;;;;;;0.10;0.10;;;;;;;0.74;87.80;100632.78;4258573;28;20245;-64
2024/01/26 03:45:18;;;;;;;0.10;0.10;;;;;;;0.82;87.48;100637.75;4258546;28;20225;-68
2024/01/26 03:47:45;;;;;;;0.30;0.30;;;;;;;0.79;87.67;100639.63;4258477;28;20237;-65
2024/01/26 03:50:12;;;;;;;0.10;0.10;;;;;;;0.76;88.11;100633.59;4261927;28;20383;-66
2024/01/26 03:52:38;;;;;;;0.53;0.53;;;;;;;0.70;88.12;100642.75;4261093;28;22835;-67
2024/01/26 03:55:06;;;;;;;1.97;1.00;;;;;;;0.55;88.18;100640.88;4259089;28;20585;-68
2024/01/26 03:57:35;;;;;;;0.10;0.10;;;;;;;0.62;88.14;100639.63;4262288;28;20505;-66
2024/01/26 04:00:05;;;;;;;0.30;0.30;;;;;;;0.65;87.28;100642.13;4266925;28;20229;-65
2024/01/26 04:02:32;;;;;;;0.10;0.10;;;;;;;0.70;87.08;100653.41;4266178;28;21801;-66
2024/01/26 04:04:59;;;;;;;1.13;1.07;;;;;;;0.42;87.75;100657.47;4257114;28;20233;-66
2024/01/26 04:07:25;;;;;;;0.10;0.10;;;;;;;0.56;87.81;100648.81;4261198;28;20233;-67
2024/01/26 04:09:52;;;;;;;0.10;0.10;;;;;;;0.61;87.40;100651.22;4263162;28;21975;-64
2024/01/26 04:12:19;;;;;;;0.10;0.10;;;;;;;0.62;87.35;100652.94;4259618;28;21737;-67
2024/01/26 04:14:45;;;;;;;0.10;0.10;;;;;;;0.65;87.49;100659.91;4259763;28;20225;-66
2024/01/26 04:17:12;;;;;;;0.10;0.10;;;;;;;0.82;86.82;100665.25;4269225;28;23307;-66
2024/01/26 04:19:39;;;;;;;0.30;0.30;;;;;;;0.67;86.53;100666.91;4265211;28;20308;-65
2024/01/26 04:22:05;;;;;;;0.13;0.13;;;;;;;0.66;87.34;100665.19;4260719;28;20240;-65
2024/01/26 04:24:34;;;;;;;0.90;0.40;;;;;;;0.51;88.17;100677.47;4264104;28;20237;-65
2024/01/26 04:27:01;;;;;;;0.10;0.10;;;;;;;0.55;88.10;100676.38;4255037;28;20225;-66
2024/01/26 04:29:27;;;;;;;0.10;0.10;;;;;;;0.65;87.96;100670.56;4267409;28;20231;-64
2024/01/26 04:31:54;;;;;;;0.30;0.30;;;;;;;0.69;87.16;100666.81;4263692;28;20238;-64
2024/01/26 04:34:20;;;;;;;3.40;1.83;;;;;;;0.54;87.56;100668.44;4264058;28;20274;-65
2024/01/26 04:36:47;;;;;;;2.57;2.37;;;;;;;0.66;86.97;100672.28;4265226;28;20252;-65
2024/01/26 04:39:16;;;;;;;0.10;0.10;;;;;;;0.72;86.05;100675.53;4262589;28;20730;-66
2024/01/26 04:41:43;;;;;;;0.80;0.70;;;;;;;0.71;85.80;100673.78;4251431;28;20921;-65
2024/01/26 04:44:10;;;;;;;0.27;0.27;;;;;;;0.58;86.26;100668.22;4263229;28;20229;-64
2024/01/26 04:46:37;;;;;;;0.10;0.10;;;;;;;0.52;86.16;100671.19;4263689;28;21409;-65
2024/01/26 04:49:03;;;;;;;0.43;0.37;;;;;;;0.56;85.28;100682.56;4264822;28;21678;-66
2024/01/26 04:51:31;;;;;;;0.10;0.10;;;;;;;0.53;85.50;100690.72;4265402;28;20229;-65
2024/01/26 04:53:57;;;;;;;0.20;0.20;;;;;;;0.54;85.07;100687.97;4263057;28;20279;-67
2024/01/26 04:56:24;;;;;;;0.10;0.10;;;;;;;0.67;84.78;100698.88;4250753;28;20299;-64
2024/01/26 04:58:51;;;;;;;0.10;0.10;;;;;;;0.76;84.39;100700.22;4260135;28;20237;-66
2024/01/26 05:01:17;;;;;;;0.10;0.10;;;;;;;0.74;83.92;100686.09;4261326;28;20291;-67
2024/01/26 05:03:44;;;;;;;0.10;0.10;;;;;;;0.69;84.64;100694.31;4264249;28;20290;-66
2024/01/26 05:06:10;;;;;;;0.10;0.10;;;;;;;0.81;83.73;100690.16;4263535;28;20796;-65
2024/01/26 05:08:38;;;;;;;0.20;0.20;;;;;;;0.67;83.80;100701.53;4254041;28;20519;-65
2024/01/26 05:11:05;;;;;;;0.10;0.10;;;;;;;0.64;83.76;100701.69;4260635;28;20290;-64
2024/01/26 05:13:32;;;;;;;0.10;0.10;;;;;;;0.59;84.05;100704.56;4265319;28;20248;-65
2024/01/26 05:15:58;;;;;;;0.87;0.77;;;;;;;0.63;84.28;100700.84;4263515;28;20229;-64
2024/01/26 05:18:25;;;;;;;0.10;0.10;;;;;;;0.70;83.83;100705.84;4256629;28;21757;-65
2024/01/26 05:20:52;;;;;;;0.20;0.20;;;;;;;0.67;83.83;100713.97;4265540;28;21738;-66
2024/01/26 05:23:18;;;;;;;0.10;0.10;;;;;;;0.67;83.60;100704.22;4263375;28;20235;-65
2024/01/26 05:25:45;;;;;;;0.10;0.10;;;;;;;0.69;84.06;100714.78;4262485;28;20636;-68
2024/01/26 05:28:11;;;;;;;0.10;0.10;;;;;;;0.54;85.11;100713.72;4253508;28;21597;-68
2024/01/26 05:30:38;;;;;;;0.03;0.03;;;;;;;0.70;84.54;100717.34;4260090;28;20414;-65
2024/01/26 05:33:05;;;;;;;0.10;0.10;;;;;;;0.84;84.40;100711.34;4262903;28;20442;-67
2024/01/26 05:35:32;;;;;;;0.00;0.00;;;;;;;0.84;84.19;100714.00;4263636;28;20526;-65
2024/01/26 05:37:58;;;;;;;0.57;0.23;;;;;;;0.73;84.46;100711.88;4266133;28;20236;-67
2024/01/26 05:40:25;;;;;;;0.10;0.10;;;;;;;0.62;85.30;100717.75;4258835;28;20243;-65
2024/01/26 05:42:52;;;;;;;0.10;0.10;;;;;;;0.72;85.16;100715.50;4262145;28;20234;-66
2024/01/26 05:45:19;;;;;;;0.10;0.10;;;;;;;0.73;84.89;100719.88;4263122;28;20264;-67
2024/01/26 05:47:47;;;;;;;0.20;0.20;;;;;;;0.60;85.35;100716.97;4258256;28;20366;-64
2024/01/26 05:50:17;;;;;;;0.10;0.10;;;;;;;0.63;85.48;100730.16;4266051;28;20233;-67
2024/01/26 05:52:43;;;;;;;0.10;0.10;;;;;;;0.83;84.42;100717.59;4268048;28;20287;-67
2024/01/26 05:55:10;;;;;;;0.10;0.10;;;;;;;0.75;84.40;100726.00;4262106;28;20314;-65
2024/01/26 05:57:37;;;;;;;0.10;0.10;;;;;;;0.76;84.85;100726.84;4279380;28;21126;-65
2024/01/26 06:00:04;;;;;;;0.10;0.10;;;;;;;0.59;85.56;100728.56;4262685;28;20599;-64
2024/01/26 06:02:31;;;;;;;0.10;0.10;;;;;;;0.62;85.34;100724.88;4264464;28;22850;-65
2024/01/26 06:04:58;;;;;;;0.10;0.10;;;;;;;0.56;85.93;100734.06;4268028;28;20575;-64
2024/01/26 06:07:24;;;;;;;0.10;0.10;;;;;;;0.66;85.67;100726.47;4262011;28;20237;-65
2024/01/26 06:09:51;;;;;;;0.10;0.10;;;;;;;0.60;85.35;100729.44;4264644;28;21952;-66
2024/01/26 06:12:17;;;;;;;0.10;0.10;;;;;;;0.58;85.80;100740.16;4272295;28;20236;-64
2024/01/26 06:14:44;;;;;;;0.10;0.10;;;;;;;0.65;85.31;100737.16;4264348;28;20505;-66
2024/01/26 06:17:11;;;;;;;0.10;0.10;;;;;;;0.72;85.03;100735.94;4254164;28;20240;-66
2024/01/26 06:19:38;;;;;;;0.10;0.10;;;;;;;0.66;84.88;100729.13;4261326;28;25762;-63
2024/01/26 06:22:05;;;;;;;0.10;0.10;;;;;;;0.63;84.93;100729.25;4267113;28;20247;-66
2024/01/26 06:24:31;;;;;;;0.10;0.10;;;;;;;0.59;84.79;100733.88;4269799;28;20230;-66
2024/01/26 06:26:58;;;;;;;0.10;0.10;;;;;;;0.68;84.80;100731.69;4259611;28;20263;-65
2024/01/26 06:29:25;;;;;;;0.10;0.10;;;;;;;0.72;83.94;100739.47;4278482;28;20380;-66
2024/01/26 06:31:52;;;;;;;0.10;0.10;;;;;;;0.74;84.00;100742.06;4295457;28;20232;-67
2024/01/26 06:34:18;;;;;;;0.10;0.10;;;;;;;0.51;85.57;100740.53;4270620;28;20234;-65
2024/01/26 06:36:45;;;;;;;0.10;0.10;;;;;;;0.56;85.39;100749.16;4269952;28;20226;-64
2024/01/26 06:39:12;;;;;;;0.10;0.10;;;;;;;0.47;85.44;100748.66;4278728;28;20308;-65
2024/01/26 06:41:43;;;;;;;0.10;0.10;;;;;;;0.53;85.75;100744.00;4283328;28;21266;-65
2024/01/26 06:44:10;;;;;;;0.10;0.10;;;;;;;0.57;85.22;100745.56;4254049;28;20233;-67
2024/01/26 06:46:37;;;;;;;0.10;0.10;;;;;;;0.44;85.33;100751.50;4267661;28;20698;-66
2024/01/26 06:49:04;;;;;;;0.10;0.10;;;;;;;0.68;84.36;100743.22;4271790;28;20367;-65
2024/01/26 06:51:30;;;;;;;0.10;0.10;;;;;;;0.52;84.92;100735.13;4277563;28;20540;-67
2024/01/26 06:54:00;;;;;;;0.10;0.10;;;;;;;0.55;85.03;100737.66;4282585;28;21683;-67
2024/01/26 06:56:28;;;;;;;0.10;0.10;;;;;;;0.60;84.60;100742.75;4275524;28;22063;-65
2024/01/26 06:58:54;;;;;;;0.10;0.10;;;;;;;0.63;84.52;100735.47;4279291;28;20240;-64
2024/01/26 07:01:21;;;;;;;0.10;0.10;;;;;;;0.74;84.45;100734.06;4308054;28;20302;-68
2024/01/26 07:03:48;;;;;;;0.17;0.17;;;;;;;0.68;84.38;100737.88;4293844;28;20237;-68
2024/01/26 07:06:15;;;;;;;0.10;0.10;;;;;;;0.68;84.51;100739.69;4276267;28;20242;-67
2024/01/26 07:08:42;;;;;;;0.10;0.10;;;;;;;0.62;85.23;100741.75;4274430;28;22123;-63
2024/01/26 07:11:12;;;;;;;0.10;0.10;;;;;;;0.58;86.07;100740.16;4283166;28;20245;-63
2024/01/26 07:13:39;;;;;;;1.30;1.03;;;;;;;0.45;86.31;100752.34;4274490;28;20237;-65
2024/01/26 07:16:06;;;;;;;0.10;0.10;;;;;;;0.79;85.26;100756.03;4274572;28;20532;-66
2024/01/26 07:18:33;;;;;;;0.20;0.20;;;;;;;0.67;85.41;100765.50;4280148;28;21079;-64
2024/01/26 07:21:05;;;;;;;0.10;0.10;;;;;;;0.69;85.37;100766.25;4274733;28;21621;-64
2024/01/26 07:23:32;;;;;;;0.10;0.10;;;;;;;0.84;84.56;100766.44;4254696;28;20258;-65
2024/01/26 07:26:00;;;;;;;0.10;0.10;;;;;;;0.84;83.68;100759.31;4264822;28;20230;-64
2024/01/26 07:28:27;;;;;;;0.10;0.10;;;;;;;0.99;83.74;100770.13;4296501;28;20238;-66
2024/01/26 07:30:53;;;;;;;0.20;0.20;;;;;;;0.97;83.41;100770.22;4268464;28;20606;-65
2024/01/26 07:33:20;;;;;;;0.10;0.10;;;;;;;1.12;83.33;100773.06;4263517;28;20375;-63
2024/01/26 07:35:47;;;;;;;0.10;0.10;;;;;;;1.01;83.73;100778.94;4264061;28;20238;-65
2024/01/26 07:38:14;;;;;;;0.10;0.10;;;;;;;1.01;83.35;100773.59;4268972;28;20233;-65
2024/01/26 07:40:40;;;;;;;0.43;0.20;;;;;;;0.98;82.68;100776.41;4284195;28;21382;-64
2024/01/26 07:43:09;;;;;;;0.10;0.10;;;;;;;0.97;82.69;100782.69;4260402;28;20320;-64
2024/01/26 07:45:36;;;;;;;0.10;0.10;;;;;;;1.02;81.49;100784.19;4255762;28;21952;-66
2024/01/26 07:48:03;;;;;;;0.10;0.10;;;;;;;1.03;80.61;100787.69;4263305;28;20243;-64
2024/01/26 07:50:30;;;;;;;0.10;0.10;;;;;;;1.13;81.10;100799.63;4279820;28;20225;-67
2024/01/26 07:52:57;;;;;;;0.30;0.30;;;;;;;1.17;80.67;100803.00;4273107;28;20414;-68
2024/01/26 07:55:24;;;;;;;1.90;1.73;;;;;;;1.05;80.59;100805.38;4259875;28;20228;-67
2024/01/26 07:57:51;;;;;;;0.63;0.60;;;;;;;1.22;80.03;100800.94;4290622;28;21945;-66
2024/01/26 08:00:18;;;;;;;12.73;4.67;;;;;;;1.15;80.82;100804.88;4272811;28;20379;-66
2024/01/26 08:02:46;;;;;;;2.80;1.40;;;;;;;0.98;81.20;100798.63;4260403;28;20843;-67
2024/01/26 08:05:12;;;;;;;0.10;0.10;;;;;;;1.19;80.65;100806.47;4268284;28;20429;-69
2024/01/26 08:07:41;;;;;;;0.10;0.10;;;;;;;1.10;80.71;100805.09;4266885;28;20233;-70
2024/01/26 08:10:09;;;;;;;0.10;0.10;;;;;;;1.29;79.76;100805.03;4263431;28;20426;-66
2024/01/26 08:12:37;;;;;;;0.10;0.10;;;;;;;1.39;79.42;100811.63;4282916;28;20326;-66
2024/01/26 08:15:11;;;;;;;0.10;0.10;;;;;;;1.42;79.24;100808.81;4294506;28;23888;-67
2024/01/26 08:17:39;;;;;;;0.10;0.10;;;;;;;1.30;79.47;100803.25;4276275;28;20238;-69
2024/01/26 08:20:07;;;;;;;0.40;0.30;;;;;;;1.00;80.60;100798.53;4289558;28;20648;-67
2024/01/26 08:22:38;;;;;;;0.10;0.10;;;;;;;1.06;81.47;100809.72;4294186;28;20300;-67
2024/01/26 08:25:07;;;;;;;0.57;0.57;;;;;;;1.02;80.46;100804.66;4322239;28;20240;-69
2024/01/26 08:27:35;;;;;;;0.40;0.40;;;;;;;1.04;81.16;100803.63;4298630;28;20567;-67
2024/01/26 08:30:03;;;;;;;0.20;0.20;;;;;;;0.90;81.54;100800.81;4300424;28;20271;-66
2024/01/26 08:32:30;;;;;;;0.40;0.40;;;;;;;1.04;81.73;100794.75;4264724;28;20228;-67
2024/01/26 08:34:57;;;;;;;0.10;0.10;;;;;;;1.18;81.46;100796.72;4294123;28;20416;-69
2024/01/26 08:37:24;;;;;;;0.10;0.10;;;;;;;1.08;81.38;100791.00;4312035;28;21720;-68
2024/01/26 08:39:51;;;;;;;0.10;0.10;;;;;;;1.22;81.52;100792.97;4271368;28;21722;-69
2024/01/26 08:42:18;;;;;;;0.00;0.00;;;;;;;1.45;80.22;100788.22;4268926;28;20590;-70
2024/01/26 08:44:45;;;;;;;0.10;0.10;;;;;;;1.49;80.30;100792.50;4308773;28;20267;-66
2024/01/26 08:47:12;;;;;;;0.00;0.00;;;;;;;1.42;80.00;100786.59;4291404;28;20232;-67
2024/01/26 08:49:38;;;;;;;0.10;0.10;;;;;;;1.11;81.88;100790.84;4265773;28;23419;-67
2024/01/26 08:52:05;;;;;;;0.10;0.10;;;;;;;1.18;82.23;100788.72;4256680;28;20484;-70
2024/01/26 08:54:32;;;;;;;0.20;0.20;;;;;;;1.10;nan;100791.78;4314904;28;22956;-67
2024/01/26 08:56:59;;;;;;;0.10;0.10;;;;;;;1.28;82.32;100782.00;4281916;28;20231;-66
2024/01/26 08:59:25;;;;;;;2.57;0.97;;;;;;;1.26;82.13;100781.22;4331961;28;20840;-68
2024/01/26 09:01:52;;;;;;;0.10;0.10;;;;;;;1.44;82.85;100784.72;4282874;28;20731;-68
2024/01/26 09:04:19;;;;;;;0.10;0.10;;;;;;;1.22;82.35;100764.50;4277267;28;20305;-65
2024/01/26 09:06:45;;;;;;;0.10;0.10;;;;;;;1.60;82.11;100781.25;4300696;28;20824;-69
2024/01/26 09:09:20;;;;;;;0.10;0.10;;;;;;;1.89;80.64;100788.56;4285029;28;23414;-69
2024/01/26 09:11:47;;;;;;;1.13;0.67;;;;;;;1.94;80.29;100788.31;4312215;28;20295;-67
2024/01/26 09:14:14;;;;;;;0.10;0.10;;;;;;;2.01;80.13;100784.34;4307939;28;20245;-66
2024/01/26 09:16:41;;;;;;;0.10;0.10;;;;;;;2.11;79.76;100789.22;4289423;28;20227;-70
2024/01/26 09:19:08;;;;;;;0.10;0.10;;;;;;;2.19;79.00;100784.31;4265417;28;22258;-67
2024/01/26 09:21:36;;;;;;;1.60;0.87;;;;;;;2.20;78.14;100792.22;4266549;28;20325;-68
2024/01/26 09:24:03;;;;;;;0.10;0.10;;;;;;;2.21;78.60;100788.63;4262656;28;20318;-68
2024/01/26 09:26:29;;;;;;;0.10;0.10;;;;;;;2.01;79.27;100788.81;4262704;28;20230;-67
2024/01/26 09:28:56;;;;;;;0.10;0.10;;;;;;;2.09;78.94;100788.41;4267588;28;21656;-67
2024/01/26 09:31:23;;;;;;;0.00;0.00;;;;;;;1.90;78.76;100771.59;4273986;28;23321;-66
2024/01/26 09:33:49;;;;;;;0.10;0.10;;;;;;;1.83;78.77;100767.53;4285007;28;21038;-67
2024/01/26 09:36:16;;;;;;;1.30;0.60;;;;;;;1.61;78.76;100770.47;4286949;28;22070;-67
2024/01/26 09:38:45;;;;;;;0.10;0.10;;;;;;;1.79;78.10;100763.28;4261526;28;20291;-66
2024/01/26 09:41:12;;;;;;;0.30;0.30;;;;;;;1.91;77.22;100772.44;4267442;28;23020;-65
2024/01/26 09:43:38;;;;;;;0.30;0.27;;;;;;;1.74;78.15;100771.53;4286327;28;22160;-68
2024/01/26 09:46:07;;;;;;;2.63;1.13;;;;;;;1.84;75.60;100779.94;4267458;28;20304;-69
2024/01/26 09:48:34;;;;;;;0.20;0.20;;;;;;;1.58;75.76;100771.50;4270182;28;20238;-69
2024/01/26 09:51:01;;;;;;;0.10;0.10;;;;;;;1.87;75.10;100762.91;4283163;28;20298;-67
2024/01/26 09:53:31;;;;;;;0.10;0.10;;;;;;;1.84;74.65;100745.25;4290067;28;20293;-71
2024/01/26 09:55:59;;;;;;;0.10;0.10;;;;;;;2.00;74.16;100753.25;4259498;28;22030;-77
2024/01/26 09:58:26;;;;;;;0.10;0.10;;;;;;;2.04;73.62;100745.94;4275903;28;20239;-68
2024/01/26 10:14:41;;;;;;;2.23;0.57;;;;;;;1.76;73.50;100734.13;4271095;28;20844;-67
2024/01/26 10:17:08;;;;;;;0.10;0.10;;;;;;;1.93;73.93;100735.84;4243502;28;22312;-64
2024/01/26 10:19:35;;;;;;;0.10;0.10;;;;;;;1.92;73.54;100727.94;4260231;28;20295;-67
2024/01/26 10:22:03;;;;;;;0.10;0.10;;;;;;;2.23;72.67;100729.75;4225728;28;21425;-65
2024/01/26 10:24:31;;;;;;;0.10;0.10;;;;;;;2.35;72.28;100717.50;4228127;28;21806;-65
2024/01/26 10:26:57;;;;;;;0.73;0.40;;;;;;;1.86;74.52;100716.63;4233171;28;20505;-64
2024/01/26 10:29:25;;;;;;;1.80;0.63;;;;;;;1.73;75.02;100710.25;4258801;28;22180;-66
2024/01/26 10:31:52;;;;;;;0.10;0.10;;;;;;;1.84;75.58;100702.53;4265187;28;20240;-66
2024/01/26 10:34:20;;;;;;;1.17;0.97;;;;;;;1.77;75.74;100710.94;4217154;28;20780;-65
2024/01/26 10:36:49;;;;;;;0.10;0.10;;;;;;;1.63;75.77;100701.88;4244098;28;20595;-67
2024/01/26 10:39:24;;;;;;;0.40;0.40;;;;;;;1.80;74.89;100702.78;4232374;28;21658;-71
2024/01/26 10:41:52;;;;;;;4.00;1.20;;;;;;;1.61;75.29;100700.25;4229884;28;21215;-65
2024/01/26 10:44:20;;;;;;;3.40;1.10;;;;;;;1.40;76.71;100695.09;4224290;28;20273;-66
2024/01/26 10:46:48;;;;;;;0.20;0.20;;;;;;;1.48;76.65;100692.03;4220072;28;21796;-66
2024/01/26 10:49:15;;;;;;;0.33;0.30;;;;;;;1.70;75.26;100689.09;4250607;28;22115;-67
2024/01/26 10:51:43;;;;;;;0.20;0.20;;;;;;;1.76;75.69;100683.41;4239946;28;20239;-68
2024/01/26 10:54:11;;;;;;;0.13;0.13;;;;;;;1.94;74.16;100688.66;4208410;28;21114;-67
2024/01/26 10:56:39;;;;;;;0.10;0.10;;;;;;;2.11;72.95;100669.88;4230881;28;20311;-67
2024/01/26 10:59:09;;;;;;;0.20;0.20;;;;;;;2.17;73.33;100674.88;4231160;28;21130;-66
2024/01/26 11:01:38;;;;;;;0.10;0.10;;;;;;;2.29;72.30;100664.44;4205555;28;22123;-65
2024/01/26 11:04:08;;;;;;;0.10;0.10;;;;;;;2.49;71.37;100664.13;4206720;28;20354;-65
2024/01/26 11:06:36;;;;;;;0.00;0.00;;;;;;;2.72;71.02;100661.91;4240465;28;20466;-67
2024/01/26 11:09:07;;;;;;;0.07;0.07;;;;;;;2.92;70.64;100652.69;4205009;28;20235;-69
2024/01/26 11:11:41;;;;;;;0.87;0.83;;;;;;;2.77;70.21;100667.84;4216812;28;20319;-66
2024/01/26 11:14:11;;;;;;;0.30;0.30;;;;;;;2.19;73.22;100658.78;4217094;28;20756;-65
2024/01/26 11:16:41;;;;;;;0.57;0.50;;;;;;;2.27;73.56;100661.84;4221824;28;20246;-67
2024/01/26 11:19:08;;;;;;;1.03;0.87;;;;;;;1.92;74.31;100654.03;4207964;28;22922;-67
2024/01/26 11:21:44;;;;;;;0.77;0.60;;;;;;;1.81;74.12;100673.31;4212817;28;20235;-66
2024/01/26 11:24:18;;;;;;;0.57;0.43;;;;;;;1.71;74.86;100664.97;4223036;28;20283;-66
2024/01/26 11:26:57;;;;;;;0.20;0.20;;;;;;;1.75;74.67;100676.34;4207305;28;20891;-66
2024/01/26 11:29:37;;;;;;;1.07;0.43;;;;;;;1.76;74.41;100664.72;4225060;28;22215;-65
2024/01/26 11:32:22;;;;;;;0.87;0.53;;;;;;;1.79;74.09;100648.50;4201572;28;20416;-66
2024/01/26 11:35:06;;;;;;;1.30;0.67;;;;;;;1.64;74.31;100646.69;4223250;28;20252;-65
2024/01/26 11:37:33;;;;;;;0.10;0.10;;;;;;;1.61;74.21;100655.75;4209807;28;20229;-66
2024/01/26 11:40:01;;;;;;;0.10;0.10;;;;;;;1.61;74.93;100655.75;4216834;28;20298;-67
2024/01/26 11:42:28;;;;;;;2.57;0.83;;;;;;;1.71;73.58;100650.75;4192777;28;20342;-65
2024/01/26 11:45:07;;;;;;;0.60;0.60;;;;;;;1.63;74.26;100653.84;4212925;28;20327;-66
2024/01/26 11:47:38;;;;;;;1.30;0.90;;;;;;;1.54;74.49;100643.69;4211047;28;20237;-64
2024/01/26 11:50:11;;;;;;;0.50;0.33;;;;;;;1.58;73.79;100635.44;4197265;28;21753;-66